createdAt,value
2022-10-11T05:03:10.158Z,0.30
2022-10-11T05:08:13.919Z,0.32
2022-10-11T05:13:17.486Z,0.20
2022-10-11T05:18:22.802Z,0.30
2022-10-11T05:23:26.584Z,0.40
2022-10-11T05:28:30.507Z,0.30
2022-10-11T05:33:35.939Z,0.13
2022-10-11T05:38:40.332Z,0.32
2022-10-11T05:43:44.529Z,0.13
2022-10-11T05:48:49.521Z,0.20
2022-10-11T05:53:53.109Z,0.28
2022-10-11T05:59:02.077Z,0.28
2022-10-11T06:04:08.423Z,0.13
2022-10-11T06:09:12.184Z,0.60
2022-10-11T06:14:16.026Z,0.33
2022-10-11T06:19:21.048Z,0.33
2022-10-11T06:24:24.730Z,0.50
2022-10-11T06:29:28.349Z,0.52
2022-10-11T06:34:33.350Z,0.37
2022-10-11T06:39:36.968Z,0.28
2022-10-11T06:44:40.665Z,0.32
2022-10-11T06:49:45.661Z,0.30
2022-10-11T06:54:49.376Z,0.40
2022-10-11T06:59:52.959Z,0.10
2022-10-11T07:04:57.958Z,0.30
2022-10-11T07:10:01.582Z,0.37
2022-10-11T07:15:05.874Z,0.20
2022-10-11T07:20:12.611Z,0.30
2022-10-11T07:25:16.264Z,0.20
2022-10-11T07:30:20.029Z,0.50
2022-10-11T07:35:25.115Z,0.43
2022-10-11T07:40:28.824Z,0.40
2022-10-11T07:45:32.459Z,0.60
2022-10-11T07:50:37.462Z,0.63
2022-10-11T07:55:41.138Z,0.62
2022-10-11T08:00:45.078Z,0.65
2022-10-11T08:05:52.188Z,0.40
2022-10-11T08:10:55.863Z,0.40
2022-10-11T08:15:59.718Z,0.30
2022-10-11T08:21:09.076Z,0.37
2022-10-11T08:26:13.115Z,0.52
2022-10-11T08:31:17.687Z,0.65
2022-10-11T08:41:30.744Z,1.00
2022-10-11T08:46:38.004Z,0.70
2022-10-11T08:51:46.310Z,0.50
2022-10-11T08:56:50.625Z,0.50
2022-10-11T09:02:00.522Z,0.47
2022-10-11T09:07:12.142Z,0.70
2022-10-11T09:12:29.538Z,0.60
2022-10-11T09:17:48.562Z,0.85
2022-10-11T09:23:00.869Z,0.60
2022-10-11T09:28:18.396Z,0.77
2022-10-11T09:33:30.507Z,1.67
2022-10-11T09:38:44.279Z,0.82
2022-10-11T09:43:50.782Z,0.50
2022-10-11T09:48:57.287Z,0.62
2022-10-11T09:54:04.248Z,0.80
2022-10-11T09:59:27.206Z,0.85
2022-10-11T10:04:30.971Z,0.70
2022-10-11T10:09:36.261Z,0.80
2022-10-11T10:14:42.143Z,0.93
2022-10-11T10:19:51.818Z,1.90
2022-10-11T10:24:59.148Z,1.05
2022-10-11T10:30:16.077Z,1.15
2022-10-11T10:35:30.832Z,1.48
2022-10-11T10:46:18.488Z,0.70
2022-10-11T10:51:32.533Z,1.27
2022-10-11T10:56:46.255Z,1.05
2022-10-11T11:02:16.023Z,1.07
2022-10-11T11:07:31.654Z,0.82
2022-10-11T11:12:46.217Z,0.80
2022-10-11T11:18:04.145Z,1.12
2022-10-11T11:23:20.269Z,1.30
2022-10-11T11:28:37.485Z,1.48
2022-10-11T11:33:51.395Z,0.90
2022-10-11T11:38:59.381Z,1.05
2022-10-11T11:44:08.062Z,1.42
2022-10-11T11:49:18.775Z,1.20
2022-10-11T11:54:33.770Z,1.12
2022-10-11T11:59:46.834Z,0.98
2022-10-11T12:04:51.574Z,1.05
2022-10-11T12:10:16.364Z,1.10
2022-10-11T12:15:26.184Z,1.10
2022-10-11T12:20:31.582Z,1.65
2022-10-11T12:25:44.183Z,1.95
2022-10-11T12:31:05.837Z,0.93
2022-10-11T12:36:39.898Z,1.25
2022-10-11T12:42:29.743Z,1.20
2022-10-11T12:47:43.288Z,1.98
2022-10-11T12:52:58.535Z,1.23
2022-10-11T12:58:28.062Z,1.12
2022-10-11T13:03:38.163Z,0.85
2022-10-11T13:08:49.269Z,1.50
2022-10-11T13:13:58.090Z,1.27
2022-10-11T13:19:08.023Z,1.05
2022-10-11T13:24:21.808Z,0.90
2022-10-11T13:29:33.801Z,0.90
2022-10-11T13:34:42.493Z,1.08
2022-10-11T13:39:48.962Z,1.25
2022-10-11T13:44:53.239Z,1.60
2022-10-11T13:50:11.168Z,1.05
2022-10-11T13:55:24.618Z,0.77
2022-10-11T14:00:35.191Z,0.93
2022-10-11T14:05:42.258Z,0.60
2022-10-11T14:10:47.554Z,1.00
2022-10-11T14:16:01.914Z,1.23
2022-10-11T14:21:30.840Z,1.27
2022-10-11T14:26:37.988Z,1.00
2022-10-11T14:31:42.967Z,0.80
2022-10-11T14:36:48.570Z,1.12
2022-10-11T14:41:53.487Z,0.88
2022-10-11T14:46:57.228Z,1.65
2022-10-11T14:52:04.021Z,0.90
2022-10-11T14:57:08.367Z,1.30
2022-10-11T15:02:16.016Z,0.82
2022-10-11T15:07:21.388Z,0.62
2022-10-11T15:12:25.064Z,0.70
2022-10-11T15:17:28.857Z,0.47
2022-10-11T15:22:33.900Z,0.98
2022-10-11T15:27:37.504Z,0.60
2022-10-11T15:32:41.280Z,1.07
2022-10-11T15:43:22.023Z,0.80
2022-10-11T15:48:29.009Z,0.68
2022-10-11T15:53:32.726Z,0.68
2022-10-11T15:58:40.988Z,1.25
2022-10-11T16:03:44.954Z,1.02
2022-10-11T16:08:48.841Z,0.93
2022-10-11T16:13:53.783Z,0.95
2022-10-11T16:18:57.369Z,0.57
2022-10-11T16:24:01.041Z,0.70
2022-10-11T16:29:06.299Z,0.70
2022-10-11T16:34:09.907Z,0.50
2022-10-11T16:39:15.736Z,1.07
2022-10-11T16:44:24.881Z,1.40
2022-10-11T16:49:29.829Z,0.60
2022-10-11T16:54:33.576Z,1.67
2022-10-11T16:59:38.810Z,0.95
2022-10-11T17:04:42.382Z,0.88
2022-10-11T17:09:48.576Z,0.30
2022-10-11T17:14:54.017Z,1.00
2022-10-11T17:19:57.588Z,1.08
2022-10-11T17:25:03.387Z,0.50
2022-10-11T17:30:09.929Z,0.50
2022-10-11T17:35:13.517Z,0.73
2022-10-11T17:40:17.623Z,0.97
2022-10-11T17:45:22.883Z,1.12
2022-10-11T17:50:26.493Z,0.70
2022-10-11T17:55:30.099Z,0.37
2022-10-11T18:00:35.117Z,1.23
2022-10-11T18:05:40.990Z,0.50
2022-10-11T18:10:47.571Z,0.50
2022-10-11T18:15:53.763Z,0.82
2022-10-11T18:20:57.395Z,0.70
2022-10-11T18:26:02.927Z,1.27
2022-10-11T18:31:13.036Z,1.17
2022-10-11T18:36:18.466Z,1.17
2022-10-11T18:46:28.249Z,1.33
2022-10-11T18:51:33.486Z,1.08
2022-10-11T18:56:37.569Z,1.20
2022-10-11T19:01:44.539Z,1.42
2022-10-11T19:06:49.677Z,1.73
2022-10-11T19:11:55.577Z,1.02
2022-10-11T19:17:01.108Z,1.70
2022-10-11T19:22:04.758Z,1.30
2022-10-11T19:27:08.378Z,1.53
2022-10-11T19:32:13.602Z,1.23
2022-10-11T19:37:17.251Z,0.80
2022-10-11T19:42:20.918Z,0.93
2022-10-11T19:47:26.107Z,0.83
2022-10-11T19:52:29.987Z,1.15
2022-10-11T19:57:34.493Z,1.55
2022-10-11T20:02:39.525Z,1.27
2022-10-11T20:07:43.184Z,1.60
2022-10-11T20:12:46.808Z,1.40
2022-10-11T20:17:51.779Z,1.67
2022-10-11T20:22:55.636Z,1.37
2022-10-11T20:27:59.222Z,1.43
2022-10-11T20:33:04.523Z,1.50
2022-10-11T20:38:08.115Z,2.20
2022-10-11T20:43:11.693Z,1.23
2022-10-11T20:48:16.656Z,1.33
2022-10-11T20:53:20.260Z,1.60
2022-10-11T20:58:24.458Z,1.60
2022-10-11T21:03:29.445Z,1.05
2022-10-11T21:08:33.497Z,1.42
2022-10-11T21:13:37.590Z,1.30
2022-10-11T21:18:42.975Z,0.88
2022-10-11T21:23:46.541Z,0.82
2022-10-11T21:28:50.204Z,1.08
2022-10-11T21:33:55.280Z,0.93
2022-10-11T21:38:58.884Z,0.90
2022-10-11T21:44:02.576Z,1.12
2022-10-11T21:49:07.533Z,1.30
2022-10-11T21:54:11.182Z,1.20
2022-10-11T21:59:15.013Z,0.93
2022-10-11T22:04:20.058Z,0.83
2022-10-11T22:09:23.848Z,0.98
2022-10-11T22:14:27.911Z,0.77
2022-10-11T22:19:32.856Z,1.12
2022-10-11T22:24:36.441Z,0.75
2022-10-11T22:29:40.172Z,0.80
